Time;durP1;ratioP1;P1;durP2;ratioP2;P2;SDS_P1;SDS_P2;PMS_P1;PMS_P2;Temp;Humidity;BMP_temperature;BMP_pressure;BME280_temperature;BME280_humidity;BME280_pressure;Samples;Min_cycle;Max_cycle;Signal;HPM_P1;HPM_P2
2022/11/10 00:00:56;;;;;;;10.30;3.60;;;;;;;10.60;100.00;98459.16;6249239;22;20007;-84
2022/11/10 00:03:22;;;;;;;21.65;4.05;;;;;;;10.54;100.00;98458.19;6275880;22;20008;-84
2022/11/10 00:05:48;;;;;;;23.27;3.83;;;;;;;10.50;100.00;98459.59;6274321;22;20057;-83
2022/11/10 00:08:13;;;;;;;21.08;4.15;;;;;;;10.32;100.00;98457.63;6248631;22;20422;-83
2022/11/10 00:10:56;;;;;;;16.60;3.70;;;;;;;10.60;100.00;98456.53;6274704;22;20035;-84
2022/11/10 00:13:34;;;;;;;16.47;3.83;;;;;;;10.68;100.00;98453.66;6248923;22;20068;-82
2022/11/10 00:18:48;;;;;;;23.50;3.90;;;;;;;10.63;100.00;98439.56;6275839;22;20346;-83
2022/11/10 00:21:16;;;;;;;21.38;4.30;;;;;;;10.46;100.00;98449.75;6283181;22;20011;-82
2022/11/10 00:23:42;;;;;;;21.13;3.40;;;;;;;10.52;100.00;98446.28;6253580;22;20015;-82
2022/11/10 00:26:16;;;;;;;10.20;3.70;;;;;;;10.50;100.00;98445.69;6306605;22;20007;-82
2022/11/10 00:28:43;;;;;;;12.38;3.10;;;;;;;10.67;100.00;98465.19;6306067;22;20038;-83
2022/11/10 00:31:10;;;;;;;19.90;3.92;;;;;;;10.76;100.00;98476.25;6279297;22;20011;-82
2022/11/10 00:33:42;;;;;;;21.33;4.63;;;;;;;10.78;100.00;98457.66;6306020;22;20372;-83
2022/11/10 00:36:09;;;;;;;12.65;2.78;;;;;;;10.52;100.00;98459.41;6279338;22;20065;-83
2022/11/10 00:38:35;;;;;;;24.50;3.72;;;;;;;10.63;100.00;98477.13;6253313;22;20015;-83
2022/11/10 00:41:01;;;;;;;24.33;4.38;;;;;;;10.70;100.00;98466.56;6306266;22;20092;-82
2022/11/10 00:43:28;;;;;;;15.30;4.00;;;;;;;10.77;100.00;98477.03;6306181;22;20014;-82
2022/11/10 00:45:54;;;;;;;18.77;3.65;;;;;;;10.82;100.00;98485.13;6253365;22;20011;-83
2022/11/10 00:48:19;;;;;;;19.15;3.60;;;;;;;10.77;100.00;98495.41;6279142;22;20039;-82
2022/11/10 00:50:46;;;;;;;19.63;3.45;;;;;;;10.81;100.00;98510.56;6306472;22;20026;-84
2022/11/10 00:53:11;;;;;;;15.48;3.22;;;;;;;10.96;100.00;98507.66;6306226;22;20438;-82
2022/11/10 00:55:37;;;;;;;18.80;3.83;;;;;;;11.00;100.00;98508.03;6306077;22;20039;-83
2022/11/10 00:58:04;;;;;;;19.70;4.15;;;;;;;11.03;100.00;98517.31;6278846;22;20350;-83
2022/11/10 01:00:29;;;;;;;16.67;3.58;;;;;;;11.05;100.00;98523.16;6253406;22;20011;-84
2022/11/10 01:02:55;;;;;;;11.75;3.63;;;;;;;11.05;100.00;98515.28;6306123;22;20011;-82
2022/11/10 01:05:22;;;;;;;10.48;2.70;;;;;;;11.31;100.00;98532.72;6306262;22;20011;-82
2022/11/10 01:07:48;;;;;;;16.90;3.35;;;;;;;11.29;100.00;98527.66;6278709;22;20516;-83
2022/11/10 01:10:13;;;;;;;14.52;3.17;;;;;;;11.50;100.00;98546.75;6305612;22;20106;-83
2022/11/10 01:12:39;;;;;;;12.65;3.42;;;;;;;11.46;100.00;98542.94;6305569;22;20011;-82
2022/11/10 01:15:06;;;;;;;16.23;3.95;;;;;;;11.56;100.00;98564.28;6306282;22;20040;-84
2022/11/10 01:17:31;;;;;;;13.25;3.55;;;;;;;11.66;100.00;98560.38;6278962;22;20052;-83
2022/11/10 01:19:57;;;;;;;20.92;4.47;;;;;;;11.60;100.00;98558.63;6253302;22;20050;-84
2022/11/10 01:22:23;;;;;;;17.92;3.88;;;;;;;11.65;100.00;98556.94;6306274;22;20015;-85
2022/11/10 01:24:48;;;;;;;18.15;4.38;;;;;;;11.56;100.00;98548.50;6253444;22;20022;-84
2022/11/10 01:27:14;;;;;;;16.10;3.13;;;;;;;11.55;100.00;98552.16;6306222;22;20007;-85
2022/11/10 01:29:39;;;;;;;11.38;3.20;;;;;;;11.65;100.00;98556.16;6278997;22;20008;-84
2022/11/10 01:32:06;;;;;;;10.57;3.20;;;;;;;11.60;100.00;98550.75;6306009;22;20345;-85
2022/11/10 01:34:31;;;;;;;17.85;3.63;;;;;;;11.63;100.00;98558.19;6278870;22;20080;-86
2022/11/10 01:36:57;;;;;;;13.38;2.92;;;;;;;11.77;100.00;98551.78;6306457;22;20014;-85
2022/11/10 01:39:23;;;;;;;13.98;3.30;;;;;;;11.64;100.00;98552.72;6253193;22;20445;-85
2022/11/10 01:41:49;;;;;;;24.10;3.80;;;;;;;11.67;100.00;98549.66;6279090;22;20015;-85
2022/11/10 01:44:20;;;;;;;12.98;3.55;;;;;;;11.69;100.00;98541.56;6278792;22;20008;-85
2022/11/10 01:46:46;;;;;;;19.60;3.80;;;;;;;11.67;100.00;98539.13;6278931;22;20086;-85
2022/11/10 01:49:16;;;;;;;12.70;3.65;;;;;;;11.66;100.00;98547.25;6278926;22;20510;-84
2022/11/10 01:51:55;;;;;;;13.93;3.33;;;;;;;11.65;100.00;98540.38;6253320;22;20090;-85
2022/11/10 01:54:35;;;;;;;15.38;3.78;;;;;;;11.67;100.00;98530.44;6279394;22;20344;-85
2022/11/10 01:57:05;;;;;;;16.33;3.17;;;;;;;11.66;100.00;98542.00;6278931;22;20049;-85
2022/11/10 01:59:36;;;;;;;18.58;4.05;;;;;;;11.66;100.00;98547.25;6306455;22;20022;-85
2022/11/10 02:02:12;;;;;;;17.92;3.60;;;;;;;11.67;100.00;98544.38;6253017;22;20131;-86
2022/11/10 02:04:40;;;;;;;16.73;5.03;;;;;;;11.85;100.00;98546.28;6278758;22;20098;-84
2022/11/10 02:07:08;;;;;;;19.48;3.58;;;;;;;11.63;100.00;98543.22;6306250;22;20018;-86
2022/11/10 02:09:34;;;;;;;20.00;4.07;;;;;;;11.90;100.00;98556.16;6308126;22;20429;-85
2022/11/10 02:11:59;;;;;;;11.07;3.20;;;;;;;11.88;100.00;98550.28;6280972;22;20011;-85
2022/11/10 02:14:25;;;;;;;11.05;3.60;;;;;;;11.74;100.00;98546.97;6280979;22;20333;-84
2022/11/10 02:16:51;;;;;;;17.05;3.53;;;;;;;11.85;100.00;98548.91;6255107;22;20007;-85
2022/11/10 02:19:22;;;;;;;16.10;4.20;;;;;;;12.01;100.00;98554.69;6308184;22;20007;-86
2022/11/10 02:21:48;;;;;;;17.88;3.38;;;;;;;11.89;100.00;98548.47;6255129;22;20018;-86
2022/11/10 02:24:14;;;;;;;13.88;3.20;;;;;;;11.87;100.00;98538.16;6280987;22;20389;-84
2022/11/10 02:26:52;;;;;;;7.45;3.35;;;;;;;11.63;100.00;98526.66;6308074;22;20349;-85
2022/11/10 02:29:19;;;;;;;11.45;3.22;;;;;;;11.82;100.00;98524.88;6308015;22;20085;-85
2022/11/10 02:31:45;;;;;;;14.85;4.13;;;;;;;11.70;100.00;98522.13;6307894;22;20022;-86
2022/11/10 02:34:11;;;;;;;12.55;3.45;;;;;;;11.81;100.00;98528.53;6308151;22;20345;-85
2022/11/10 02:36:37;;;;;;;8.80;3.10;;;;;;;11.69;100.00;98510.84;6308287;22;20008;-86
2022/11/10 02:39:03;;;;;;;14.80;4.13;;;;;;;11.81;100.00;98513.56;6308076;22;20018;-85
2022/11/10 02:41:28;;;;;;;22.88;3.50;;;;;;;11.83;100.00;98527.28;6307900;22;20011;-86
2022/11/10 02:43:55;;;;;;;11.63;3.05;;;;;;;11.78;100.00;98539.47;6307843;22;20011;-85
2022/11/10 02:46:21;;;;;;;12.90;3.38;;;;;;;11.88;100.00;98539.00;6307329;22;20014;-85
2022/11/10 02:48:47;;;;;;;9.73;3.05;;;;;;;11.80;100.00;98545.31;6307677;22;20455;-85
2022/11/10 02:51:13;;;;;;;9.73;2.80;;;;;;;11.81;100.00;98549.56;6307624;22;20018;-85
2022/11/10 02:53:38;;;;;;;16.45;3.20;;;;;;;11.74;100.00;98541.72;6280514;22;20038;-85
2022/11/10 02:56:05;;;;;;;10.60;2.72;;;;;;;11.81;100.00;98554.81;6280492;22;20433;-85
2022/11/10 02:58:30;;;;;;;14.38;2.90;;;;;;;11.77;100.00;98557.06;6280413;22;20342;-85
2022/11/10 03:00:56;;;;;;;8.40;2.53;;;;;;;11.96;100.00;98560.56;6307461;22;20007;-84
2022/11/10 03:03:22;;;;;;;9.70;2.50;;;;;;;11.96;100.00;98567.63;6307687;22;20038;-84
2022/11/10 03:05:48;;;;;;;12.52;2.80;;;;;;;11.85;100.00;98567.31;6280062;22;20011;-84
2022/11/10 03:08:13;;;;;;;8.57;2.80;;;;;;;11.82;100.00;98562.50;6280342;22;20018;-86
2022/11/10 03:10:39;;;;;;;14.77;3.95;;;;;;;11.85;100.00;98582.28;6280662;22;20015;-85
2022/11/10 03:13:04;;;;;;;10.68;2.53;;;;;;;11.84;100.00;98576.25;6280147;22;20049;-83
2022/11/10 03:15:30;;;;;;;6.13;2.17;;;;;;;12.03;100.00;98583.41;6308204;22;20014;-84
2022/11/10 03:18:01;;;;;;;8.07;2.70;;;;;;;12.06;100.00;98573.25;6307346;22;20007;-85
2022/11/10 03:20:27;;;;;;;13.93;3.20;;;;;;;12.13;100.00;98566.09;6279485;22;20019;-84
2022/11/10 03:22:53;;;;;;;5.72;2.72;;;;;;;11.98;100.00;98570.84;6307374;22;20018;-84
2022/11/10 03:25:18;;;;;;;6.57;2.38;;;;;;;11.89;100.00;98561.63;6280141;22;20015;-84
2022/11/10 03:27:44;;;;;;;7.78;2.47;;;;;;;11.87;100.00;98556.56;6254847;22;20064;-84
2022/11/10 03:30:11;;;;;;;8.07;2.25;;;;;;;11.93;100.00;98570.69;6307742;22;20083;-85
2022/11/10 03:32:36;;;;;;;9.45;2.47;;;;;;;11.84;100.00;98559.63;6254736;22;20038;-85
2022/11/10 03:35:02;;;;;;;8.32;2.88;;;;;;;11.91;100.00;98568.31;6307819;22;20014;-85
2022/11/10 03:37:28;;;;;;;9.48;2.70;;;;;;;11.71;100.00;98565.81;6254724;22;20036;-87
2022/11/10 03:39:53;;;;;;;7.80;2.40;;;;;;;12.03;100.00;98568.44;6280304;22;20011;-84
2022/11/10 03:42:19;;;;;;;10.40;2.33;;;;;;;12.02;100.00;98556.31;6280309;22;20390;-84
2022/11/10 03:44:45;;;;;;;15.15;2.78;;;;;;;12.03;100.00;98567.63;6280673;22;20015;-85
2022/11/10 03:47:11;;;;;;;6.20;2.35;;;;;;;12.11;100.00;98568.16;6307511;22;20349;-85
2022/11/10 03:49:36;;;;;;;8.40;2.45;;;;;;;12.10;100.00;98569.16;6280160;22;20033;-83
2022/11/10 03:52:02;;;;;;;6.93;2.55;;;;;;;12.04;100.00;98550.81;6254574;22;20012;-85
2022/11/10 03:54:27;;;;;;;9.52;2.38;;;;;;;12.17;100.00;98565.66;6254089;22;20010;-85
2022/11/10 03:56:53;;;;;;;8.57;2.63;;;;;;;12.18;100.00;98573.34;6307036;22;20034;-86
2022/11/10 03:59:19;;;;;;;6.75;2.00;;;;;;;12.14;100.00;98553.78;6279594;22;20015;-84
2022/11/10 04:01:45;;;;;;;9.98;2.40;;;;;;;12.18;100.00;98564.63;6306875;22;20029;-83
2022/11/10 04:09:38;;;;;;;7.28;2.00;;;;;;;12.34;100.00;98568.56;6306218;22;20018;-84
2022/11/10 04:17:33;;;;;;;6.22;2.00;;;;;;;12.28;100.00;98543.91;6306877;22;20014;-85
2022/11/10 04:19:59;;;;;;;3.95;1.90;;;;;;;12.43;100.00;98565.44;6279264;22;20016;-83
2022/11/10 04:25:09;;;;;;;4.22;1.70;;;;;;;12.34;100.00;98553.56;6279349;22;20145;-84
2022/11/10 04:27:34;;;;;;;7.28;2.00;;;;;;;12.36;100.00;98556.78;6307107;22;20147;-85
2022/11/10 04:30:00;;;;;;;4.90;1.60;;;;;;;12.35;100.00;98555.16;6279291;22;20043;-84
2022/11/10 04:32:26;;;;;;;5.60;1.95;;;;;;;12.35;100.00;98544.63;6279507;22;20459;-83
2022/11/10 04:34:51;;;;;;;5.07;1.67;;;;;;;12.31;100.00;98532.94;6279719;22;20038;-85
2022/11/10 04:37:17;;;;;;;3.10;1.60;;;;;;;12.22;100.00;98531.63;6306926;22;20011;-86
2022/11/10 04:39:43;;;;;;;5.25;1.65;;;;;;;12.17;100.00;98537.53;6279255;22;20081;-84
2022/11/10 04:42:11;;;;;;;9.15;2.08;;;;;;;12.16;100.00;98533.31;6306925;22;20062;-84
2022/11/10 04:44:37;;;;;;;6.50;1.73;;;;;;;12.05;100.00;98540.09;6279303;22;20328;-84
2022/11/10 04:47:02;;;;;;;6.65;2.00;;;;;;;12.16;100.00;98541.19;6279678;22;20086;-84
2022/11/10 04:49:29;;;;;;;4.82;2.70;;;;;;;12.12;100.00;98545.28;6306762;22;20013;-86
2022/11/10 04:51:54;;;;;;;7.68;1.98;;;;;;;12.14;100.00;98554.56;6253566;22;20426;-82
2022/11/10 04:54:20;;;;;;;3.60;2.22;;;;;;;12.22;100.00;98556.09;6306642;22;20056;-85
2022/11/10 04:56:45;;;;;;;7.65;2.00;;;;;;;12.14;100.00;98553.78;6279307;22;20354;-84
2022/11/10 04:59:11;;;;;;;4.18;1.55;;;;;;;12.20;100.00;98549.47;6306727;22;20522;-84
2022/11/10 05:01:36;;;;;;;6.38;2.10;;;;;;;12.35;100.00;98557.00;6306638;22;20376;-85
2022/11/10 05:04:04;;;;;;;6.15;1.80;;;;;;;12.19;100.00;98553.91;6306585;22;20014;-85
2022/11/10 05:06:30;;;;;;;6.13;1.90;;;;;;;12.05;100.00;98570.84;6279137;22;20459;-85
2022/11/10 05:08:55;;;;;;;7.32;2.92;;;;;;;12.05;100.00;98582.16;6306522;22;20011;-85
2022/11/10 05:11:21;;;;;;;7.20;2.15;;;;;;;11.93;100.00;98570.69;6306724;22;20014;-86
2022/11/10 05:13:47;;;;;;;3.83;2.28;;;;;;;12.08;100.00;98587.00;6279245;22;20096;-84
2022/11/10 05:16:12;;;;;;;5.32;2.20;;;;;;;12.12;100.00;98585.53;6306768;22;20007;-84
2022/11/10 05:18:38;;;;;;;6.03;2.17;;;;;;;12.23;100.00;98588.50;6279326;22;20042;-83
2022/11/10 05:21:04;;;;;;;12.15;2.60;;;;;;;12.45;100.00;98590.72;6274035;22;20007;-84
2022/11/10 05:23:39;;;;;;;10.05;2.30;;;;;;;12.49;100.00;98586.63;6275866;22;20008;-85
2022/11/10 05:26:10;;;;;;;5.07;2.33;;;;;;;12.49;100.00;98584.00;6274245;22;20012;-84
2022/11/10 05:28:36;;;;;;;5.25;2.33;;;;;;;12.59;100.00;98600.09;6275074;22;20434;-84
2022/11/10 05:31:02;;;;;;;5.20;2.13;;;;;;;12.46;100.00;98608.91;6273336;22;20011;-85
2022/11/10 05:33:28;;;;;;;7.85;2.50;;;;;;;12.66;100.00;98603.47;6273754;22;20012;-84
2022/11/10 05:35:54;;;;;;;9.02;3.47;;;;;;;12.52;100.00;98594.09;6274618;22;20008;-83
2022/11/10 05:38:20;;;;;;;8.57;2.80;;;;;;;12.42;100.00;98598.03;6247998;22;20019;-85
2022/11/10 05:40:46;;;;;;;6.55;2.45;;;;;;;12.39;100.00;98601.09;6273737;22;20014;-84
2022/11/10 05:43:11;;;;;;;6.65;2.60;;;;;;;12.26;100.00;98599.38;6273551;22;20018;-85
2022/11/10 05:45:37;;;;;;;5.93;2.45;;;;;;;12.41;100.00;98606.13;6273668;22;20057;-83
2022/11/10 05:48:03;;;;;;;9.35;2.75;;;;;;;12.37;100.00;98595.22;6247857;22;20014;-83
2022/11/10 05:50:28;;;;;;;8.68;2.55;;;;;;;12.49;100.00;98592.72;6273222;22;20008;-83
2022/11/10 05:52:54;;;;;;;8.18;3.05;;;;;;;12.34;100.00;98584.34;6275167;22;20019;-84
2022/11/10 05:55:24;;;;;;;8.32;2.42;;;;;;;12.40;100.00;98586.94;6247849;22;20004;-85
2022/11/10 05:57:51;;;;;;;6.13;2.20;;;;;;;12.19;100.00;98582.84;6275650;22;20008;-86
2022/11/10 06:00:22;;;;;;;13.02;3.08;;;;;;;12.29;100.00;98595.53;6273911;22;20040;-83
2022/11/10 06:03:22;;;;;;;6.40;2.63;;;;;;;12.19;100.00;98567.06;6275343;22;20011;-85
2022/11/10 06:05:47;;;;;;;6.70;2.33;;;;;;;12.12;100.00;98571.59;6275542;22;20031;-85
2022/11/10 06:08:13;;;;;;;5.45;2.63;;;;;;;12.05;100.00;98581.34;6248325;22;20008;-85
2022/11/10 06:10:39;;;;;;;4.80;2.47;;;;;;;12.06;100.00;98561.91;6248151;22;20363;-85
2022/11/10 06:13:05;;;;;;;5.32;2.20;;;;;;;12.00;100.00;98584.63;6275006;22;20011;-84
2022/11/10 06:15:31;;;;;;;10.32;2.40;;;;;;;11.89;100.00;98587.94;6247794;22;20039;-84
2022/11/10 06:17:57;;;;;;;6.43;2.50;;;;;;;11.96;100.00;98583.41;6273616;22;20338;-85
2022/11/10 06:20:24;;;;;;;9.98;2.13;;;;;;;12.17;100.00;98584.09;6274817;22;20007;-85
2022/11/10 06:23:01;;;;;;;10.77;2.33;;;;;;;12.20;100.00;98573.94;6302896;22;20022;-84
2022/11/10 06:25:32;;;;;;;3.03;1.80;;;;;;;12.11;100.00;98581.31;6306461;22;20018;-87
2022/11/10 06:27:58;;;;;;;4.00;1.83;;;;;;;12.18;100.00;98580.44;6306263;22;20082;-87
2022/11/10 06:30:25;;;;;;;6.63;2.67;;;;;;;12.24;100.00;98587.47;6306034;22;20061;-84
2022/11/10 06:32:50;;;;;;;6.75;2.15;;;;;;;12.45;100.00;98596.00;6278536;22;20011;-85
2022/11/10 06:35:16;;;;;;;9.48;2.60;;;;;;;12.36;100.00;98577.81;6305883;22;20014;-84
2022/11/10 06:37:42;;;;;;;10.95;2.33;;;;;;;12.51;100.00;98572.25;6278329;22;20022;-85
2022/11/10 06:40:11;;;;;;;6.03;2.38;;;;;;;12.40;100.00;98589.56;6305694;22;20382;-84
2022/11/10 06:42:37;;;;;;;6.95;2.00;;;;;;;12.22;100.00;98595.56;6278467;22;20086;-85
2022/11/10 06:45:03;;;;;;;4.30;1.90;;;;;;;12.27;100.00;98595.72;6252364;22;20441;-84
2022/11/10 06:47:29;;;;;;;6.28;2.30;;;;;;;12.20;100.00;98605.50;6277468;22;20091;-87
2022/11/10 06:49:54;;;;;;;8.35;1.83;;;;;;;12.25;100.00;98628.56;6303924;22;20082;-85
2022/11/10 06:52:20;;;;;;;4.70;2.13;;;;;;;12.19;100.00;98619.69;6278333;22;20098;-85
2022/11/10 06:54:46;;;;;;;6.55;2.20;;;;;;;12.06;100.00;98615.34;6253708;22;20413;-84
2022/11/10 06:57:12;;;;;;;4.88;1.77;;;;;;;12.05;100.00;98616.38;6306832;22;20045;-84
2022/11/10 06:59:37;;;;;;;9.25;2.25;;;;;;;12.08;100.00;98628.28;6279821;22;20050;-85
2022/11/10 07:02:03;;;;;;;9.05;2.13;;;;;;;12.07;100.00;98635.38;6307407;22;20374;-85
2022/11/10 07:04:29;;;;;;;9.60;2.10;;;;;;;12.06;100.00;98630.31;6306752;22;20018;-85
2022/11/10 07:06:54;;;;;;;9.45;2.42;;;;;;;12.10;100.00;98624.41;6304918;22;20018;-86
2022/11/10 07:09:21;;;;;;;7.18;2.08;;;;;;;12.14;100.00;98622.97;6307329;22;20696;-86
2022/11/10 07:11:46;;;;;;;12.60;2.15;;;;;;;12.19;100.00;98624.94;6306700;22;20081;-86
2022/11/10 07:14:12;;;;;;;6.95;3.42;;;;;;;12.16;100.00;98630.66;6279668;22;20011;-86
2022/11/10 07:16:40;;;;;;;4.85;1.67;;;;;;;12.16;100.00;98630.66;6308093;22;20065;-86
2022/11/10 07:19:06;;;;;;;6.50;2.00;;;;;;;12.20;100.00;98639.72;6254961;22;20073;-85
2022/11/10 07:21:31;;;;;;;6.15;1.77;;;;;;;12.09;100.00;98635.97;6275345;22;20007;-84
2022/11/10 07:23:57;;;;;;;8.02;1.70;;;;;;;12.16;100.00;98632.47;6250005;22;20011;-85
2022/11/10 07:26:23;;;;;;;5.82;1.55;;;;;;;12.09;100.00;98641.22;6277373;22;20007;-85
2022/11/10 07:28:49;;;;;;;4.30;1.90;;;;;;;12.14;100.00;98641.38;6275656;22;20018;-86
2022/11/10 07:31:14;;;;;;;9.30;1.73;;;;;;;12.10;100.00;98632.31;6276950;22;20039;-84
2022/11/10 07:33:40;;;;;;;6.57;1.48;;;;;;;11.98;100.00;98644.50;6275313;22;20493;-84
2022/11/10 07:36:06;;;;;;;6.70;2.03;;;;;;;12.09;100.00;98638.59;6276999;22;20014;-84
2022/11/10 07:38:33;;;;;;;6.22;1.55;;;;;;;12.17;100.00;98647.22;6276931;22;20092;-87
2022/11/10 07:40:58;;;;;;;9.27;2.10;;;;;;;12.28;100.00;98643.91;6277068;22;20019;-85
2022/11/10 07:43:24;;;;;;;9.00;1.83;;;;;;;12.19;100.00;98647.84;6275673;22;20426;-85
2022/11/10 07:45:51;;;;;;;5.45;1.73;;;;;;;12.19;100.00;98666.25;6275418;22;20035;-86
2022/11/10 07:48:17;;;;;;;10.68;2.90;;;;;;;12.08;100.00;98673.00;6277624;22;20011;-85
2022/11/10 07:50:42;;;;;;;7.95;1.92;;;;;;;12.45;100.00;98693.38;6277151;22;20039;-84
2022/11/10 07:53:12;;;;;;;4.47;2.00;;;;;;;12.49;100.00;98665.59;6277380;22;20019;-86
2022/11/10 07:55:39;;;;;;;5.63;1.90;;;;;;;12.41;100.00;98690.38;6275713;22;20008;-84
2022/11/10 07:58:05;;;;;;;6.13;2.72;;;;;;;12.56;100.00;98687.41;6275679;22;20015;-84
2022/11/10 08:00:32;;;;;;;6.53;2.35;;;;;;;12.55;100.00;98696.31;6275290;22;20086;-83
2022/11/10 08:03:06;;;;;;;7.90;1.80;;;;;;;12.64;100.00;98694.22;6276940;22;20015;-85
2022/11/10 08:05:33;;;;;;;9.48;2.42;;;;;;;12.52;100.00;98680.97;6274958;22;20085;-84
2022/11/10 08:07:59;;;;;;;9.25;2.55;;;;;;;12.77;100.00;98693.28;6277195;22;20086;-82
2022/11/10 08:10:28;;;;;;;9.15;2.30;;;;;;;12.70;100.00;98667.84;6275389;22;20008;-84
2022/11/10 08:12:55;;;;;;;4.95;2.00;;;;;;;12.89;100.00;98691.56;6276680;22;20422;-84
2022/11/10 08:15:22;;;;;;;9.80;2.67;;;;;;;12.73;100.00;98676.31;6274999;22;20322;-84
2022/11/10 08:17:47;;;;;;;4.22;2.40;;;;;;;12.92;100.00;98683.22;6252218;22;20011;-83
2022/11/10 08:20:13;;;;;;;6.03;3.05;;;;;;;12.78;100.00;98694.94;6249348;22;20023;-83
2022/11/10 08:22:43;;;;;;;5.82;2.40;;;;;;;12.85;100.00;98700.94;6302709;22;20076;-83
2022/11/10 08:25:10;;;;;;;10.60;2.42;;;;;;;13.09;100.00;98701.91;6255084;22;20019;-85
2022/11/10 08:27:35;;;;;;;7.40;2.70;;;;;;;12.98;100.00;98723.69;6280255;22;20017;-85
2022/11/10 08:30:02;;;;;;;6.85;2.65;;;;;;;13.22;100.00;98713.31;6280241;22;20003;-87
2022/11/10 08:32:28;;;;;;;6.18;3.03;;;;;;;13.10;100.00;98718.50;6279695;22;20064;-86
2022/11/10 08:34:53;;;;;;;10.10;2.97;;;;;;;13.19;100.00;98701.41;6306511;22;20469;-85
2022/11/10 08:37:20;;;;;;;7.88;2.92;;;;;;;13.40;100.00;98712.50;6279320;22;20442;-86
2022/11/10 08:39:45;;;;;;;11.68;3.45;;;;;;;13.29;100.00;98716.69;6253335;22;20065;-86
2022/11/10 08:42:11;;;;;;;6.65;2.90;;;;;;;13.39;100.00;98700.34;6281975;22;20793;-84
2022/11/10 08:44:36;;;;;;;8.07;3.55;;;;;;;13.48;100.00;98712.22;6281169;22;20417;-85
2022/11/10 08:47:02;;;;;;;11.88;3.28;;;;;;;13.43;100.00;98706.81;6306572;22;20003;-85
2022/11/10 08:49:28;;;;;;;9.38;4.03;;;;;;;13.56;100.00;98713.75;6306301;22;20014;-86
2022/11/10 08:51:53;;;;;;;12.98;3.70;;;;;;;13.73;100.00;98724.50;6278770;22;20086;-85
2022/11/10 08:54:20;;;;;;;9.43;3.38;;;;;;;13.50;100.00;98730.47;6306754;22;20011;-85
2022/11/10 08:56:46;;;;;;;7.80;3.20;;;;;;;13.77;100.00;98719.59;6253683;22;20025;-86
2022/11/10 08:59:11;;;;;;;8.38;3.03;;;;;;;13.83;100.00;98710.78;6279788;22;20015;-84
2022/11/10 09:01:37;;;;;;;13.15;4.05;;;;;;;13.56;100.00;98724.31;6279870;22;20015;-84
2022/11/10 09:04:02;;;;;;;8.63;3.30;;;;;;;13.63;100.00;98743.47;6278993;22;20086;-85
2022/11/10 09:06:29;;;;;;;6.25;2.95;;;;;;;13.62;100.00;98738.44;6280439;22;20396;-86
2022/11/10 09:08:56;;;;;;;7.35;2.92;;;;;;;13.88;100.00;98744.41;6305872;22;20034;-84
2022/11/10 09:11:21;;;;;;;5.80;2.90;;;;;;;13.79;100.00;98736.81;6306639;22;20082;-87
2022/11/10 09:13:47;;;;;;;6.75;2.97;;;;;;;13.89;100.00;98752.09;6279249;22;20011;-86
2022/11/10 09:16:12;;;;;;;5.72;2.90;;;;;;;13.92;100.00;98762.22;6278432;22;20011;-86
2022/11/10 09:18:38;;;;;;;11.75;3.85;;;;;;;13.97;100.00;98748.34;6278484;22;20333;-85
2022/11/10 09:21:10;;;;;;;6.25;3.08;;;;;;;13.85;100.00;98741.19;6306141;22;20305;-85
2022/11/10 09:24:27;;;;;;;7.75;3.28;;;;;;;14.14;100.00;98732.69;6306295;22;20291;-84
2022/11/10 09:26:59;;;;;;;7.68;3.08;;;;;;;14.09;100.00;98725.44;6126534;23;20038;-86
2022/11/10 09:29:25;;;;;;;8.82;2.97;;;;;;;13.85;100.00;98725.34;6127302;23;20475;-88
2022/11/10 09:31:51;;;;;;;10.65;3.40;;;;;;;13.98;100.00;98744.69;6218662;22;20022;-85
2022/11/10 09:34:16;;;;;;;8.30;2.63;;;;;;;13.99;100.00;98733.88;6306975;22;20513;-86
2022/11/10 09:36:42;;;;;;;7.22;3.03;;;;;;;13.98;100.00;98748.13;6306584;22;20011;-85
2022/11/10 09:39:07;;;;;;;8.43;2.83;;;;;;;14.24;100.00;98754.03;6279302;22;20374;-86
2022/11/10 09:41:38;;;;;;;6.28;2.78;;;;;;;14.07;100.00;98766.28;6306610;22;20007;-85
2022/11/10 09:44:22;;;;;;;4.75;2.55;;;;;;;13.93;100.00;98763.00;6306598;22;20068;-87
2022/11/10 09:47:04;;;;;;;6.70;3.00;;;;;;;14.27;100.00;98776.56;6306414;22;20456;-85
2022/11/10 09:49:35;;;;;;;7.80;2.90;;;;;;;14.30;100.00;98784.03;6278794;22;20089;-86
2022/11/10 09:52:02;;;;;;;11.85;3.38;;;;;;;14.23;100.00;98770.13;6306461;22;20057;-85
2022/11/10 09:54:42;;;;;;;9.63;3.00;;;;;;;14.20;100.00;98767.94;6278898;22;20045;-86
2022/11/10 09:57:13;;;;;;;5.25;2.80;;;;;;;14.11;100.00;98770.88;6279012;22;20375;-86
2022/11/10 09:59:40;;;;;;;3.25;2.60;;;;;;;14.26;100.00;98756.47;6278887;22;20018;-85
2022/11/10 10:02:38;;;;;;;6.72;2.40;;;;;;;14.32;100.00;98771.41;6279229;22;20015;-86
2022/11/10 10:05:25;;;;;;;6.78;2.95;;;;;;;14.49;100.00;98776.84;6278850;22;20382;-86
2022/11/10 10:08:09;;;;;;;9.20;2.38;;;;;;;14.13;100.00;98787.28;6278996;22;20015;-85
2022/11/10 10:10:43;;;;;;;8.43;2.45;;;;;;;14.40;100.00;98786.13;6279173;22;20007;-85
2022/11/10 10:13:27;;;;;;;9.55;2.58;;;;;;;14.63;100.00;98793.28;6306456;22;20011;-86
2022/11/10 10:16:16;;;;;;;6.07;1.98;;;;;;;14.57;100.00;98805.56;6306190;22;20046;-86
2022/11/10 10:19:03;;;;;;;4.85;1.67;;;;;;;14.64;100.00;98812.56;6279009;22;20007;-85
2022/11/10 10:22:06;;;;;;;5.20;2.05;;;;;;;14.80;100.00;98822.50;6252835;22;20007;-86
2022/11/10 10:24:33;;;;;;;5.97;2.08;;;;;;;14.84;100.00;98821.06;6278926;22;20360;-86
2022/11/10 10:27:03;;;;;;;5.72;2.67;;;;;;;14.69;100.00;98824.06;6306325;22;20095;-86
2022/11/10 10:29:43;;;;;;;3.53;1.65;;;;;;;14.80;100.00;98827.00;6280274;22;20003;-87
2022/11/10 10:32:13;;;;;;;6.82;1.80;;;;;;;15.13;100.00;98821.19;6255580;22;20085;-86
2022/11/10 10:34:40;;;;;;;2.10;1.60;;;;;;;15.09;100.00;98832.44;6280277;22;20007;-86
2022/11/10 10:37:40;;;;;;;7.15;1.88;;;;;;;15.42;100.00;98831.06;6280339;22;20007;-86
2022/11/10 10:40:12;;;;;;;3.83;1.35;;;;;;;15.12;100.00;98824.03;6280439;22;20403;-87
2022/11/10 10:42:39;;;;;;;5.60;1.30;;;;;;;15.08;100.00;98814.97;6308069;22;20380;-86
2022/11/10 10:45:22;;;;;;;4.03;1.38;;;;;;;14.92;100.00;98822.53;6280662;22;20437;-85
2022/11/10 10:47:54;;;;;;;4.10;1.42;;;;;;;15.39;100.00;98834.16;6312152;22;20026;-85
2022/11/10 10:50:23;;;;;;;11.35;1.58;;;;;;;15.45;100.00;98820.00;6308030;22;20123;-84
2022/11/10 10:53:08;;;;;;;5.38;1.27;;;;;;;15.55;100.00;98811.47;6308223;22;20383;-85
2022/11/10 10:55:35;;;;;;;3.67;1.30;;;;;;;15.31;100.00;98802.78;6254721;22;20022;-83
2022/11/10 10:58:04;;;;;;;1.70;1.20;;;;;;;15.82;100.00;98809.13;6307680;22;20053;-83
2022/11/10 11:00:30;;;;;;;4.95;1.30;;;;;;;15.52;100.00;98802.16;6280260;22;20034;-84
2022/11/10 11:03:25;;;;;;;5.43;1.10;;;;;;;16.04;100.00;98789.97;6254802;22;20011;-83
2022/11/10 11:06:03;;;;;;;5.15;1.40;;;;;;;15.73;100.00;98809.72;6241796;22;20393;-84
2022/11/10 11:08:29;;;;;;;2.67;1.50;;;;;;;15.86;100.00;98783.00;6307467;22;20022;-85
2022/11/10 11:10:55;;;;;;;3.33;1.55;;;;;;;15.90;100.00;98773.56;6279900;22;20007;-85
2022/11/10 11:13:26;;;;;;;3.50;1.60;;;;;;;15.78;100.00;98786.81;6306141;22;20390;-84
2022/11/10 11:16:05;;;;;;;6.03;1.70;;;;;;;16.10;100.00;98794.31;6306863;22;20007;-85
2022/11/10 11:18:34;;;;;;;2.35;1.42;;;;;;;16.09;100.00;98771.53;6307630;22;20126;-85
2022/11/10 11:21:11;;;;;;;2.47;1.33;;;;;;;15.60;100.00;98776.41;6306923;22;20008;-85
2022/11/10 11:23:52;;;;;;;1.73;1.35;;;;;;;16.11;100.00;98763.38;6306542;22;20011;-83
2022/11/10 11:26:46;;;;;;;1.83;1.10;;;;;;;15.92;100.00;98778.66;6305923;22;20007;-85
2022/11/10 11:29:30;;;;;;;0.93;0.80;;;;;;;15.79;100.00;98767.25;6278250;22;20032;-84
2022/11/10 11:32:20;;;;;;;3.33;0.90;;;;;;;15.91;100.00;98774.38;6253748;22;20011;-83
2022/11/10 11:35:17;;;;;;;2.45;1.00;;;;;;;15.92;100.00;98786.59;6254689;22;20014;-82
2022/11/10 11:38:14;;;;;;;2.67;0.85;;;;;;;15.57;100.00;98781.13;6254116;22;20786;-83
2022/11/10 11:41:04;;;;;;;1.77;0.90;;;;;;;15.78;100.00;98789.47;6279099;22;20022;-85
2022/11/10 11:43:49;;;;;;;4.22;1.25;;;;;;;15.49;100.00;98789.41;6305894;22;20398;-84
2022/11/10 11:46:21;;;;;;;1.13;0.90;;;;;;;15.92;100.00;98789.25;6307351;22;20014;-86